sensor_id;sensor_type;location;lat;lon;timestamp;P1;durP1;ratioP1;P2;durP2;ratioP2
20004;SDS011;68409;45.498;-73.582;2023-03-16T00:01:19;1.53;;;1.00;;
20004;SDS011;68409;45.498;-73.582;2023-03-16T00:03:46;1.33;;;0.97;;
20004;SDS011;68409;45.498;-73.582;2023-03-16T00:06:12;7.57;;;0.97;;
20004;SDS011;68409;45.498;-73.582;2023-03-16T00:08:38;1.87;;;1.00;;
20004;SDS011;68409;45.498;-73.582;2023-03-16T00:11:07;6.50;;;0.90;;
20004;SDS011;68409;45.498;-73.582;2023-03-16T00:13:33;1.20;;;0.80;;
20004;SDS011;68409;45.498;-73.582;2023-03-16T00:16:00;1.43;;;1.00;;
20004;SDS011;68409;45.498;-73.582;2023-03-16T00:18:31;1.53;;;1.00;;
20004;SDS011;68409;45.498;-73.582;2023-03-16T00:21:03;2.90;;;1.20;;
20004;SDS011;68409;45.498;-73.582;2023-03-16T00:23:31;7.40;;;1.17;;
20004;SDS011;68409;45.498;-73.582;2023-03-16T00:26:00;2.60;;;1.00;;
20004;SDS011;68409;45.498;-73.582;2023-03-16T00:28:31;8.57;;;1.20;;
20004;SDS011;68409;45.498;-73.582;2023-03-16T00:31:02;1.43;;;0.90;;
20004;SDS011;68409;45.498;-73.582;2023-03-16T00:33:29;2.70;;;1.00;;
20004;SDS011;68409;45.498;-73.582;2023-03-16T00:35:59;4.20;;;0.80;;
20004;SDS011;68409;45.498;-73.582;2023-03-16T00:38:27;1.10;;;0.90;;
20004;SDS011;68409;45.498;-73.582;2023-03-16T00:41:04;1.47;;;1.13;;
20004;SDS011;68409;45.498;-73.582;2023-03-16T00:43:32;3.13;;;1.10;;
20004;SDS011;68409;45.498;-73.582;2023-03-16T00:46:10;1.43;;;1.03;;
20004;SDS011;68409;45.498;-73.582;2023-03-16T00:48:39;2.27;;;1.13;;
20004;SDS011;68409;45.498;-73.582;2023-03-16T00:51:08;1.80;;;0.90;;
20004;SDS011;68409;45.498;-73.582;2023-03-16T00:53:40;3.93;;;1.43;;
20004;SDS011;68409;45.498;-73.582;2023-03-16T00:56:07;1.87;;;0.90;;
20004;SDS011;68409;45.498;-73.582;2023-03-16T00:58:35;1.23;;;0.97;;
20004;SDS011;68409;45.498;-73.582;2023-03-16T01:01:05;4.90;;;1.10;;
20004;SDS011;68409;45.498;-73.582;2023-03-16T01:03:35;3.23;;;1.20;;
20004;SDS011;68409;45.498;-73.582;2023-03-16T01:06:06;3.10;;;0.90;;
20004;SDS011;68409;45.498;-73.582;2023-03-16T01:08:34;1.53;;;1.00;;
20004;SDS011;68409;45.498;-73.582;2023-03-16T01:11:05;1.33;;;1.10;;
20004;SDS011;68409;45.498;-73.582;2023-03-16T01:13:34;2.80;;;1.30;;
20004;SDS011;68409;45.498;-73.582;2023-03-16T01:16:01;2.80;;;1.20;;
20004;SDS011;68409;45.498;-73.582;2023-03-16T01:18:28;2.90;;;1.40;;
20004;SDS011;68409;45.498;-73.582;2023-03-16T01:20:58;3.23;;;1.03;;
20004;SDS011;68409;45.498;-73.582;2023-03-16T01:23:29;2.87;;;1.00;;
20004;SDS011;68409;45.498;-73.582;2023-03-16T01:25:56;1.13;;;0.90;;
20004;SDS011;68409;45.498;-73.582;2023-03-16T01:28:30;3.33;;;1.30;;
20004;SDS011;68409;45.498;-73.582;2023-03-16T01:31:05;1.87;;;1.27;;
20004;SDS011;68409;45.498;-73.582;2023-03-16T01:33:35;2.30;;;1.20;;
20004;SDS011;68409;45.498;-73.582;2023-03-16T01:36:06;2.27;;;1.30;;
20004;SDS011;68409;45.498;-73.582;2023-03-16T01:38:38;6.50;;;1.23;;
20004;SDS011;68409;45.498;-73.582;2023-03-16T01:41:08;7.40;;;1.37;;
20004;SDS011;68409;45.498;-73.582;2023-03-16T01:43:36;5.70;;;1.57;;
20004;SDS011;68409;45.498;-73.582;2023-03-16T01:48:33;2.33;;;1.40;;
20004;SDS011;68409;45.498;-73.582;2023-03-16T01:51:11;4.70;;;1.20;;
20004;SDS011;68409;45.498;-73.582;2023-03-16T01:53:45;3.50;;;1.13;;
20004;SDS011;68409;45.498;-73.582;2023-03-16T01:56:15;7.20;;;1.17;;
20004;SDS011;68409;45.498;-73.582;2023-03-16T01:58:48;2.40;;;1.13;;
20004;SDS011;68409;45.498;-73.582;2023-03-16T02:01:17;3.80;;;1.27;;
20004;SDS011;68409;45.498;-73.582;2023-03-16T02:03:43;2.00;;;1.20;;
20004;SDS011;68409;45.498;-73.582;2023-03-16T02:06:14;2.60;;;1.27;;
20004;SDS011;68409;45.498;-73.582;2023-03-16T02:08:45;3.50;;;1.37;;
20004;SDS011;68409;45.498;-73.582;2023-03-16T02:11:12;7.13;;;1.73;;
20004;SDS011;68409;45.498;-73.582;2023-03-16T02:13:43;1.33;;;1.23;;
20004;SDS011;68409;45.498;-73.582;2023-03-16T02:16:10;1.43;;;1.20;;
20004;SDS011;68409;45.498;-73.582;2023-03-16T02:18:44;2.10;;;1.40;;
20004;SDS011;68409;45.498;-73.582;2023-03-16T02:23:50;1.57;;;0.90;;
20004;SDS011;68409;45.498;-73.582;2023-03-16T02:29:02;1.33;;;1.20;;
20004;SDS011;68409;45.498;-73.582;2023-03-16T02:31:45;4.47;;;1.23;;
20004;SDS011;68409;45.498;-73.582;2023-03-16T02:34:12;4.33;;;1.60;;
20004;SDS011;68409;45.498;-73.582;2023-03-16T02:36:39;1.60;;;1.10;;
20004;SDS011;68409;45.498;-73.582;2023-03-16T02:39:08;2.60;;;1.10;;
20004;SDS011;68409;45.498;-73.582;2023-03-16T02:41:34;1.20;;;1.10;;
20004;SDS011;68409;45.498;-73.582;2023-03-16T02:44:02;5.87;;;1.17;;
20004;SDS011;68409;45.498;-73.582;2023-03-16T02:46:38;4.30;;;1.17;;
20004;SDS011;68409;45.498;-73.582;2023-03-16T02:51:36;6.13;;;1.23;;
20004;SDS011;68409;45.498;-73.582;2023-03-16T02:54:02;3.27;;;1.00;;
20004;SDS011;68409;45.498;-73.582;2023-03-16T02:56:28;1.73;;;1.03;;
20004;SDS011;68409;45.498;-73.582;2023-03-16T02:58:54;2.97;;;1.23;;
20004;SDS011;68409;45.498;-73.582;2023-03-16T03:01:22;1.43;;;1.03;;
20004;SDS011;68409;45.498;-73.582;2023-03-16T03:03:48;1.63;;;1.13;;
20004;SDS011;68409;45.498;-73.582;2023-03-16T03:06:14;1.20;;;1.10;;
20004;SDS011;68409;45.498;-73.582;2023-03-16T03:08:40;1.57;;;1.10;;
20004;SDS011;68409;45.498;-73.582;2023-03-16T03:11:07;1.33;;;1.00;;
20004;SDS011;68409;45.498;-73.582;2023-03-16T03:13:33;4.80;;;1.33;;
20004;SDS011;68409;45.498;-73.582;2023-03-16T03:16:02;7.60;;;1.10;;
20004;SDS011;68409;45.498;-73.582;2023-03-16T03:18:29;4.00;;;1.10;;
20004;SDS011;68409;45.498;-73.582;2023-03-16T03:20:55;1.93;;;1.20;;
20004;SDS011;68409;45.498;-73.582;2023-03-16T03:23:21;3.40;;;1.07;;
20004;SDS011;68409;45.498;-73.582;2023-03-16T03:25:47;1.40;;;1.00;;
20004;SDS011;68409;45.498;-73.582;2023-03-16T03:28:14;1.53;;;1.20;;
20004;SDS011;68409;45.498;-73.582;2023-03-16T03:30:40;1.97;;;1.17;;
20004;SDS011;68409;45.498;-73.582;2023-03-16T03:33:06;2.20;;;1.30;;
20004;SDS011;68409;45.498;-73.582;2023-03-16T03:35:32;5.70;;;1.23;;
20004;SDS011;68409;45.498;-73.582;2023-03-16T03:37:58;1.10;;;1.00;;
20004;SDS011;68409;45.498;-73.582;2023-03-16T03:40:24;1.93;;;1.30;;
20004;SDS011;68409;45.498;-73.582;2023-03-16T03:42:50;6.33;;;1.57;;
20004;SDS011;68409;45.498;-73.582;2023-03-16T03:45:16;2.00;;;1.37;;
20004;SDS011;68409;45.498;-73.582;2023-03-16T03:47:43;2.33;;;1.37;;
20004;SDS011;68409;45.498;-73.582;2023-03-16T03:50:09;3.20;;;1.30;;
20004;SDS011;68409;45.498;-73.582;2023-03-16T03:52:37;6.30;;;1.40;;
20004;SDS011;68409;45.498;-73.582;2023-03-16T03:55:03;4.27;;;1.50;;
20004;SDS011;68409;45.498;-73.582;2023-03-16T03:57:30;2.70;;;1.17;;
20004;SDS011;68409;45.498;-73.582;2023-03-16T03:59:56;2.80;;;1.57;;
20004;SDS011;68409;45.498;-73.582;2023-03-16T04:02:23;4.93;;;1.67;;
20004;SDS011;68409;45.498;-73.582;2023-03-16T04:04:49;3.33;;;1.37;;
20004;SDS011;68409;45.498;-73.582;2023-03-16T04:07:16;3.73;;;1.80;;
20004;SDS011;68409;45.498;-73.582;2023-03-16T04:09:43;4.00;;;2.07;;
20004;SDS011;68409;45.498;-73.582;2023-03-16T04:12:10;3.73;;;1.97;;
20004;SDS011;68409;45.498;-73.582;2023-03-16T04:14:36;8.00;;;2.10;;
20004;SDS011;68409;45.498;-73.582;2023-03-16T04:17:02;5.13;;;1.83;;
20004;SDS011;68409;45.498;-73.582;2023-03-16T04:19:29;4.43;;;1.50;;
20004;SDS011;68409;45.498;-73.582;2023-03-16T04:21:56;4.57;;;1.43;;
20004;SDS011;68409;45.498;-73.582;2023-03-16T04:24:22;6.17;;;1.60;;
20004;SDS011;68409;45.498;-73.582;2023-03-16T04:26:48;1.80;;;1.70;;
20004;SDS011;68409;45.498;-73.582;2023-03-16T04:29:14;3.73;;;1.57;;
20004;SDS011;68409;45.498;-73.582;2023-03-16T04:31:44;5.33;;;1.70;;
20004;SDS011;68409;45.498;-73.582;2023-03-16T04:34:11;2.77;;;1.30;;
20004;SDS011;68409;45.498;-73.582;2023-03-16T04:36:37;5.20;;;1.70;;
20004;SDS011;68409;45.498;-73.582;2023-03-16T04:39:04;6.73;;;1.90;;
20004;SDS011;68409;45.498;-73.582;2023-03-16T04:41:32;1.73;;;1.40;;
20004;SDS011;68409;45.498;-73.582;2023-03-16T04:43:58;8.33;;;1.50;;
20004;SDS011;68409;45.498;-73.582;2023-03-16T04:46:24;4.27;;;1.70;;
20004;SDS011;68409;45.498;-73.582;2023-03-16T04:48:53;3.60;;;1.90;;
20004;SDS011;68409;45.498;-73.582;2023-03-16T04:51:22;2.40;;;2.07;;
20004;SDS011;68409;45.498;-73.582;2023-03-16T04:53:49;2.20;;;1.70;;
20004;SDS011;68409;45.498;-73.582;2023-03-16T04:56:15;2.07;;;1.70;;
20004;SDS011;68409;45.498;-73.582;2023-03-16T04:58:45;2.60;;;1.33;;
20004;SDS011;68409;45.498;-73.582;2023-03-16T05:01:12;2.07;;;1.40;;
20004;SDS011;68409;45.498;-73.582;2023-03-16T05:03:39;6.93;;;2.13;;
20004;SDS011;68409;45.498;-73.582;2023-03-16T05:06:05;5.17;;;2.10;;
20004;SDS011;68409;45.498;-73.582;2023-03-16T05:08:31;7.80;;;2.03;;
20004;SDS011;68409;45.498;-73.582;2023-03-16T05:10:57;5.20;;;2.60;;
20004;SDS011;68409;45.498;-73.582;2023-03-16T05:13:24;2.57;;;1.20;;
20004;SDS011;68409;45.498;-73.582;2023-03-16T05:15:50;7.70;;;1.50;;
20004;SDS011;68409;45.498;-73.582;2023-03-16T05:18:19;6.13;;;1.40;;
20004;SDS011;68409;45.498;-73.582;2023-03-16T05:20:50;3.67;;;1.50;;
20004;SDS011;68409;45.498;-73.582;2023-03-16T05:23:18;1.53;;;1.20;;
20004;SDS011;68409;45.498;-73.582;2023-03-16T05:25:45;3.37;;;1.20;;
20004;SDS011;68409;45.498;-73.582;2023-03-16T05:28:12;5.13;;;1.20;;
20004;SDS011;68409;45.498;-73.582;2023-03-16T05:30:39;2.77;;;1.20;;
20004;SDS011;68409;45.498;-73.582;2023-03-16T05:33:06;1.63;;;1.30;;
20004;SDS011;68409;45.498;-73.582;2023-03-16T05:35:33;1.63;;;1.23;;
20004;SDS011;68409;45.498;-73.582;2023-03-16T05:37:59;5.60;;;1.33;;
20004;SDS011;68409;45.498;-73.582;2023-03-16T05:40:25;4.67;;;1.20;;
20004;SDS011;68409;45.498;-73.582;2023-03-16T05:42:55;2.60;;;0.90;;
20004;SDS011;68409;45.498;-73.582;2023-03-16T05:45:23;2.13;;;1.30;;
20004;SDS011;68409;45.498;-73.582;2023-03-16T05:47:49;3.67;;;1.60;;
20004;SDS011;68409;45.498;-73.582;2023-03-16T05:50:16;3.53;;;1.60;;
20004;SDS011;68409;45.498;-73.582;2023-03-16T05:52:43;3.13;;;1.33;;
20004;SDS011;68409;45.498;-73.582;2023-03-16T05:55:10;4.57;;;1.53;;
20004;SDS011;68409;45.498;-73.582;2023-03-16T05:57:38;5.63;;;1.10;;
20004;SDS011;68409;45.498;-73.582;2023-03-16T06:00:06;4.63;;;1.57;;
20004;SDS011;68409;45.498;-73.582;2023-03-16T06:02:39;3.00;;;1.30;;
20004;SDS011;68409;45.498;-73.582;2023-03-16T06:05:06;2.97;;;1.50;;
20004;SDS011;68409;45.498;-73.582;2023-03-16T06:07:33;2.40;;;1.40;;
20004;SDS011;68409;45.498;-73.582;2023-03-16T06:09:59;2.90;;;1.33;;
20004;SDS011;68409;45.498;-73.582;2023-03-16T06:12:25;2.30;;;1.20;;
20004;SDS011;68409;45.498;-73.582;2023-03-16T06:14:52;1.53;;;1.40;;
20004;SDS011;68409;45.498;-73.582;2023-03-16T06:17:18;1.73;;;1.30;;
20004;SDS011;68409;45.498;-73.582;2023-03-16T06:19:44;7.33;;;1.40;;
20004;SDS011;68409;45.498;-73.582;2023-03-16T06:22:10;2.50;;;1.53;;
20004;SDS011;68409;45.498;-73.582;2023-03-16T06:24:36;1.00;;;0.80;;
20004;SDS011;68409;45.498;-73.582;2023-03-16T06:27:02;1.30;;;1.20;;
20004;SDS011;68409;45.498;-73.582;2023-03-16T06:29:30;3.57;;;1.33;;
20004;SDS011;68409;45.498;-73.582;2023-03-16T06:31:56;4.60;;;1.77;;
20004;SDS011;68409;45.498;-73.582;2023-03-16T06:34:22;4.80;;;1.70;;
20004;SDS011;68409;45.498;-73.582;2023-03-16T06:36:48;8.70;;;1.73;;
20004;SDS011;68409;45.498;-73.582;2023-03-16T06:39:15;1.30;;;1.17;;
20004;SDS011;68409;45.498;-73.582;2023-03-16T06:41:42;1.70;;;1.47;;
20004;SDS011;68409;45.498;-73.582;2023-03-16T06:44:09;1.57;;;1.23;;
20004;SDS011;68409;45.498;-73.582;2023-03-16T06:46:36;1.53;;;1.03;;
20004;SDS011;68409;45.498;-73.582;2023-03-16T06:49:02;2.30;;;1.33;;
20004;SDS011;68409;45.498;-73.582;2023-03-16T06:51:29;5.63;;;1.47;;
20004;SDS011;68409;45.498;-73.582;2023-03-16T06:53:56;3.07;;;1.30;;
20004;SDS011;68409;45.498;-73.582;2023-03-16T06:56:22;3.23;;;1.53;;
20004;SDS011;68409;45.498;-73.582;2023-03-16T06:58:49;1.10;;;1.00;;
20004;SDS011;68409;45.498;-73.582;2023-03-16T07:01:16;1.53;;;1.43;;
20004;SDS011;68409;45.498;-73.582;2023-03-16T07:03:42;1.00;;;1.00;;
20004;SDS011;68409;45.498;-73.582;2023-03-16T07:06:08;1.27;;;1.17;;
20004;SDS011;68409;45.498;-73.582;2023-03-16T07:08:34;1.23;;;1.10;;
20004;SDS011;68409;45.498;-73.582;2023-03-16T07:11:00;3.43;;;1.13;;
20004;SDS011;68409;45.498;-73.582;2023-03-16T07:13:26;2.70;;;1.30;;
20004;SDS011;68409;45.498;-73.582;2023-03-16T07:15:52;2.83;;;1.40;;
20004;SDS011;68409;45.498;-73.582;2023-03-16T07:18:19;2.60;;;1.33;;
20004;SDS011;68409;45.498;-73.582;2023-03-16T07:20:45;2.10;;;1.37;;
20004;SDS011;68409;45.498;-73.582;2023-03-16T07:23:12;2.03;;;1.60;;
20004;SDS011;68409;45.498;-73.582;2023-03-16T07:25:38;1.17;;;1.10;;
20004;SDS011;68409;45.498;-73.582;2023-03-16T07:28:05;2.83;;;1.27;;
20004;SDS011;68409;45.498;-73.582;2023-03-16T07:30:31;2.40;;;1.63;;
20004;SDS011;68409;45.498;-73.582;2023-03-16T07:32:57;2.90;;;1.30;;
20004;SDS011;68409;45.498;-73.582;2023-03-16T07:35:23;3.00;;;1.20;;
20004;SDS011;68409;45.498;-73.582;2023-03-16T07:37:50;1.80;;;1.67;;
20004;SDS011;68409;45.498;-73.582;2023-03-16T07:40:16;1.40;;;1.30;;
20004;SDS011;68409;45.498;-73.582;2023-03-16T07:42:43;3.17;;;1.50;;
20004;SDS011;68409;45.498;-73.582;2023-03-16T07:45:09;5.07;;;1.50;;
20004;SDS011;68409;45.498;-73.582;2023-03-16T07:47:36;2.20;;;1.47;;
20004;SDS011;68409;45.498;-73.582;2023-03-16T07:50:02;3.40;;;1.40;;
20004;SDS011;68409;45.498;-73.582;2023-03-16T07:52:29;1.50;;;1.40;;
20004;SDS011;68409;45.498;-73.582;2023-03-16T07:54:55;1.90;;;1.20;;
20004;SDS011;68409;45.498;-73.582;2023-03-16T07:57:21;2.10;;;1.43;;
20004;SDS011;68409;45.498;-73.582;2023-03-16T07:59:47;1.33;;;1.23;;
20004;SDS011;68409;45.498;-73.582;2023-03-16T08:02:15;1.30;;;1.20;;
20004;SDS011;68409;45.498;-73.582;2023-03-16T08:04:42;2.87;;;1.30;;
20004;SDS011;68409;45.498;-73.582;2023-03-16T08:07:10;4.13;;;1.50;;
20004;SDS011;68409;45.498;-73.582;2023-03-16T08:09:38;3.23;;;1.33;;
20004;SDS011;68409;45.498;-73.582;2023-03-16T08:12:06;2.10;;;1.40;;
20004;SDS011;68409;45.498;-73.582;2023-03-16T08:14:33;4.00;;;1.47;;
20004;SDS011;68409;45.498;-73.582;2023-03-16T08:17:00;2.37;;;1.33;;
20004;SDS011;68409;45.498;-73.582;2023-03-16T08:19:27;5.23;;;1.30;;
20004;SDS011;68409;45.498;-73.582;2023-03-16T08:21:53;1.63;;;1.40;;
20004;SDS011;68409;45.498;-73.582;2023-03-16T08:24:19;1.37;;;1.10;;
20004;SDS011;68409;45.498;-73.582;2023-03-16T08:26:46;2.60;;;1.47;;
20004;SDS011;68409;45.498;-73.582;2023-03-16T08:29:12;2.00;;;1.17;;
20004;SDS011;68409;45.498;-73.582;2023-03-16T08:31:38;3.07;;;1.63;;
20004;SDS011;68409;45.498;-73.582;2023-03-16T08:34:07;1.97;;;1.43;;
20004;SDS011;68409;45.498;-73.582;2023-03-16T08:36:35;1.50;;;1.30;;
20004;SDS011;68409;45.498;-73.582;2023-03-16T08:39:03;1.83;;;1.30;;
20004;SDS011;68409;45.498;-73.582;2023-03-16T08:41:32;5.53;;;1.40;;
20004;SDS011;68409;45.498;-73.582;2023-03-16T08:43:58;1.60;;;1.50;;
20004;SDS011;68409;45.498;-73.582;2023-03-16T08:46:25;6.07;;;1.87;;
20004;SDS011;68409;45.498;-73.582;2023-03-16T08:48:52;1.40;;;1.30;;
20004;SDS011;68409;45.498;-73.582;2023-03-16T08:51:20;2.57;;;1.80;;
20004;SDS011;68409;45.498;-73.582;2023-03-16T08:53:47;1.90;;;1.60;;
20004;SDS011;68409;45.498;-73.582;2023-03-16T08:56:13;2.47;;;1.63;;
20004;SDS011;68409;45.498;-73.582;2023-03-16T08:58:40;4.03;;;1.70;;
20004;SDS011;68409;45.498;-73.582;2023-03-16T09:01:14;3.23;;;1.30;;
20004;SDS011;68409;45.498;-73.582;2023-03-16T09:03:41;2.60;;;1.60;;
20004;SDS011;68409;45.498;-73.582;2023-03-16T09:06:10;3.87;;;1.50;;
20004;SDS011;68409;45.498;-73.582;2023-03-16T09:08:39;4.30;;;2.10;;
20004;SDS011;68409;45.498;-73.582;2023-03-16T09:11:07;2.63;;;1.30;;
20004;SDS011;68409;45.498;-73.582;2023-03-16T09:13:36;1.40;;;1.27;;
20004;SDS011;68409;45.498;-73.582;2023-03-16T09:16:03;2.13;;;1.30;;
20004;SDS011;68409;45.498;-73.582;2023-03-16T09:18:31;3.60;;;1.20;;
20004;SDS011;68409;45.498;-73.582;2023-03-16T09:21:00;2.57;;;1.40;;
20004;SDS011;68409;45.498;-73.582;2023-03-16T09:23:27;7.33;;;1.50;;
20004;SDS011;68409;45.498;-73.582;2023-03-16T09:26:01;2.10;;;1.20;;
20004;SDS011;68409;45.498;-73.582;2023-03-16T09:28:29;2.00;;;1.50;;
20004;SDS011;68409;45.498;-73.582;2023-03-16T09:30:57;3.43;;;1.60;;
20004;SDS011;68409;45.498;-73.582;2023-03-16T09:33:24;5.23;;;1.30;;
20004;SDS011;68409;45.498;-73.582;2023-03-16T09:35:53;3.57;;;1.80;;
20004;SDS011;68409;45.498;-73.582;2023-03-16T09:38:21;3.97;;;1.70;;
20004;SDS011;68409;45.498;-73.582;2023-03-16T09:40:55;3.73;;;1.63;;
20004;SDS011;68409;45.498;-73.582;2023-03-16T09:46:26;1.87;;;1.50;;
20004;SDS011;68409;45.498;-73.582;2023-03-16T09:48:56;1.90;;;1.40;;
20004;SDS011;68409;45.498;-73.582;2023-03-16T09:51:32;6.13;;;1.90;;
20004;SDS011;68409;45.498;-73.582;2023-03-16T09:54:24;4.20;;;1.60;;
20004;SDS011;68409;45.498;-73.582;2023-03-16T09:56:57;2.80;;;1.50;;
20004;SDS011;68409;45.498;-73.582;2023-03-16T09:59:25;3.57;;;1.67;;
20004;SDS011;68409;45.498;-73.582;2023-03-16T10:02:05;2.30;;;1.73;;
20004;SDS011;68409;45.498;-73.582;2023-03-16T10:04:47;9.20;;;1.67;;
20004;SDS011;68409;45.498;-73.582;2023-03-16T10:10:05;1.67;;;1.53;;
20004;SDS011;68409;45.498;-73.582;2023-03-16T10:12:59;5.60;;;1.70;;
20004;SDS011;68409;45.498;-73.582;2023-03-16T10:15:28;1.83;;;1.57;;
20004;SDS011;68409;45.498;-73.582;2023-03-16T10:20:41;4.60;;;1.83;;
20004;SDS011;68409;45.498;-73.582;2023-03-16T10:23:27;4.33;;;1.60;;
20004;SDS011;68409;45.498;-73.582;2023-03-16T10:25:59;2.23;;;1.47;;
20004;SDS011;68409;45.498;-73.582;2023-03-16T10:28:29;5.07;;;1.80;;
20004;SDS011;68409;45.498;-73.582;2023-03-16T10:31:00;6.47;;;1.73;;
20004;SDS011;68409;45.498;-73.582;2023-03-16T10:33:28;5.43;;;1.50;;
20004;SDS011;68409;45.498;-73.582;2023-03-16T10:36:11;4.67;;;1.50;;
20004;SDS011;68409;45.498;-73.582;2023-03-16T10:41:18;9.63;;;1.67;;
20004;SDS011;68409;45.498;-73.582;2023-03-16T10:46:40;2.67;;;1.80;;
20004;SDS011;68409;45.498;-73.582;2023-03-16T10:49:27;5.70;;;2.30;;
20004;SDS011;68409;45.498;-73.582;2023-03-16T10:52:05;10.17;;;1.70;;
20004;SDS011;68409;45.498;-73.582;2023-03-16T10:54:56;4.60;;;2.07;;
20004;SDS011;68409;45.498;-73.582;2023-03-16T10:57:25;4.63;;;1.53;;
20004;SDS011;68409;45.498;-73.582;2023-03-16T10:59:58;1.93;;;1.53;;
20004;SDS011;68409;45.498;-73.582;2023-03-16T11:02:50;4.03;;;1.50;;
20004;SDS011;68409;45.498;-73.582;2023-03-16T11:10:37;3.80;;;1.80;;
20004;SDS011;68409;45.498;-73.582;2023-03-16T11:13:11;3.53;;;1.73;;
20004;SDS011;68409;45.498;-73.582;2023-03-16T11:18:34;4.57;;;1.93;;
20004;SDS011;68409;45.498;-73.582;2023-03-16T11:27:10;8.30;;;2.17;;
20004;SDS011;68409;45.498;-73.582;2023-03-16T11:32:30;7.60;;;1.73;;
20004;SDS011;68409;45.498;-73.582;2023-03-16T11:35:00;10.27;;;1.90;;
20004;SDS011;68409;45.498;-73.582;2023-03-16T11:37:41;4.40;;;2.73;;
20004;SDS011;68409;45.498;-73.582;2023-03-16T11:42:56;5.73;;;1.67;;
20004;SDS011;68409;45.498;-73.582;2023-03-16T11:56:38;12.70;;;2.20;;
20004;SDS011;68409;45.498;-73.582;2023-03-16T12:12:34;5.20;;;2.23;;
20004;SDS011;68409;45.498;-73.582;2023-03-16T12:16:03;9.23;;;2.77;;
20004;SDS011;68409;45.498;-73.582;2023-03-16T12:18:33;15.03;;;2.30;;
20004;SDS011;68409;45.498;-73.582;2023-03-16T12:20:59;11.63;;;2.53;;
20004;SDS011;68409;45.498;-73.582;2023-03-16T12:26:14;9.33;;;2.57;;
20004;SDS011;68409;45.498;-73.582;2023-03-16T12:28:41;7.13;;;2.00;;
20004;SDS011;68409;45.498;-73.582;2023-03-16T12:39:08;10.17;;;2.07;;
20004;SDS011;68409;45.498;-73.582;2023-03-16T12:41:59;8.60;;;2.00;;
20004;SDS011;68409;45.498;-73.582;2023-03-16T12:44:34;23.47;;;2.90;;
20004;SDS011;68409;45.498;-73.582;2023-03-16T12:47:05;6.00;;;1.87;;
20004;SDS011;68409;45.498;-73.582;2023-03-16T12:49:48;8.77;;;2.07;;
20004;SDS011;68409;45.498;-73.582;2023-03-16T12:52:16;7.77;;;1.90;;
20004;SDS011;68409;45.498;-73.582;2023-03-16T12:54:53;4.93;;;1.67;;
20004;SDS011;68409;45.498;-73.582;2023-03-16T12:57:39;3.20;;;1.60;;
20004;SDS011;68409;45.498;-73.582;2023-03-16T13:00:07;5.50;;;1.93;;
20004;SDS011;68409;45.498;-73.582;2023-03-16T13:02:36;5.20;;;2.13;;
20004;SDS011;68409;45.498;-73.582;2023-03-16T13:05:09;4.40;;;2.27;;
20004;SDS011;68409;45.498;-73.582;2023-03-16T13:07:51;2.60;;;1.73;;
20004;SDS011;68409;45.498;-73.582;2023-03-16T13:11:06;5.67;;;2.00;;
20004;SDS011;68409;45.498;-73.582;2023-03-16T13:13:34;4.80;;;2.07;;
20004;SDS011;68409;45.498;-73.582;2023-03-16T13:16:21;6.43;;;2.13;;
20004;SDS011;68409;45.498;-73.582;2023-03-16T13:18:51;9.20;;;2.33;;
20004;SDS011;68409;45.498;-73.582;2023-03-16T13:21:40;2.50;;;1.90;;
20004;SDS011;68409;45.498;-73.582;2023-03-16T13:26:46;15.63;;;2.80;;
20004;SDS011;68409;45.498;-73.582;2023-03-16T13:29:24;5.33;;;2.27;;
20004;SDS011;68409;45.498;-73.582;2023-03-16T13:31:52;3.10;;;2.00;;
20004;SDS011;68409;45.498;-73.582;2023-03-16T13:34:43;5.20;;;2.37;;
20004;SDS011;68409;45.498;-73.582;2023-03-16T13:37:16;5.03;;;2.10;;
20004;SDS011;68409;45.498;-73.582;2023-03-16T13:39:51;2.10;;;1.73;;
20004;SDS011;68409;45.498;-73.582;2023-03-16T13:42:21;8.03;;;2.00;;
20004;SDS011;68409;45.498;-73.582;2023-03-16T13:44:51;8.63;;;2.17;;
20004;SDS011;68409;45.498;-73.582;2023-03-16T13:47:18;5.63;;;1.83;;
20004;SDS011;68409;45.498;-73.582;2023-03-16T13:50:03;2.63;;;1.77;;
20004;SDS011;68409;45.498;-73.582;2023-03-16T13:52:33;6.10;;;1.73;;
20004;SDS011;68409;45.498;-73.582;2023-03-16T13:55:34;7.70;;;1.90;;
20004;SDS011;68409;45.498;-73.582;2023-03-16T13:57:57;6.20;;;2.00;;
20004;SDS011;68409;45.498;-73.582;2023-03-16T14:00:25;2.90;;;1.87;;
20004;SDS011;68409;45.498;-73.582;2023-03-16T14:02:57;11.43;;;3.00;;
20004;SDS011;68409;45.498;-73.582;2023-03-16T14:05:32;4.30;;;2.00;;
20004;SDS011;68409;45.498;-73.582;2023-03-16T14:08:00;4.73;;;1.90;;
20004;SDS011;68409;45.498;-73.582;2023-03-16T14:10:30;5.53;;;1.77;;
20004;SDS011;68409;45.498;-73.582;2023-03-16T14:16:01;9.73;;;1.90;;
20004;SDS011;68409;45.498;-73.582;2023-03-16T14:18:41;5.97;;;2.00;;
20004;SDS011;68409;45.498;-73.582;2023-03-16T14:21:16;3.90;;;1.77;;
20004;SDS011;68409;45.498;-73.582;2023-03-16T14:23:47;6.90;;;1.70;;
20004;SDS011;68409;45.498;-73.582;2023-03-16T14:26:26;3.77;;;1.47;;
20004;SDS011;68409;45.498;-73.582;2023-03-16T14:31:48;11.53;;;2.10;;
20004;SDS011;68409;45.498;-73.582;2023-03-16T14:37:09;10.60;;;1.80;;
20004;SDS011;68409;45.498;-73.582;2023-03-16T14:39:37;3.50;;;1.50;;
20004;SDS011;68409;45.498;-73.582;2023-03-16T14:44:53;2.70;;;1.43;;
20004;SDS011;68409;45.498;-73.582;2023-03-16T14:47:24;7.40;;;2.10;;
20004;SDS011;68409;45.498;-73.582;2023-03-16T14:49:56;6.83;;;2.00;;
20004;SDS011;68409;45.498;-73.582;2023-03-16T14:52:30;4.63;;;1.80;;
20004;SDS011;68409;45.498;-73.582;2023-03-16T14:55:07;4.63;;;1.83;;
20004;SDS011;68409;45.498;-73.582;2023-03-16T14:57:39;3.80;;;1.80;;
20004;SDS011;68409;45.498;-73.582;2023-03-16T15:00:07;4.93;;;1.83;;
20004;SDS011;68409;45.498;-73.582;2023-03-16T15:02:36;4.23;;;1.70;;
20004;SDS011;68409;45.498;-73.582;2023-03-16T15:05:05;5.30;;;2.03;;
20004;SDS011;68409;45.498;-73.582;2023-03-16T15:07:34;8.30;;;2.37;;
20004;SDS011;68409;45.498;-73.582;2023-03-16T15:12:40;5.03;;;2.03;;
20004;SDS011;68409;45.498;-73.582;2023-03-16T15:15:15;7.20;;;1.80;;
20004;SDS011;68409;45.498;-73.582;2023-03-16T15:17:43;9.80;;;1.80;;
20004;SDS011;68409;45.498;-73.582;2023-03-16T15:20:17;8.03;;;1.90;;
20004;SDS011;68409;45.498;-73.582;2023-03-16T15:22:45;4.90;;;2.00;;
20004;SDS011;68409;45.498;-73.582;2023-03-16T15:25:21;6.03;;;1.57;;
20004;SDS011;68409;45.498;-73.582;2023-03-16T15:28:01;3.50;;;1.70;;
20004;SDS011;68409;45.498;-73.582;2023-03-16T15:30:29;2.97;;;1.90;;
20004;SDS011;68409;45.498;-73.582;2023-03-16T15:32:55;4.20;;;1.77;;
20004;SDS011;68409;45.498;-73.582;2023-03-16T15:35:21;3.60;;;1.70;;
20004;SDS011;68409;45.498;-73.582;2023-03-16T15:37:48;3.10;;;1.60;;
20004;SDS011;68409;45.498;-73.582;2023-03-16T15:40:15;7.30;;;2.00;;
20004;SDS011;68409;45.498;-73.582;2023-03-16T15:42:52;3.80;;;1.63;;
20004;SDS011;68409;45.498;-73.582;2023-03-16T15:45:20;5.60;;;2.07;;
20004;SDS011;68409;45.498;-73.582;2023-03-16T15:47:53;9.80;;;1.70;;
20004;SDS011;68409;45.498;-73.582;2023-03-16T15:50:22;5.63;;;1.60;;
20004;SDS011;68409;45.498;-73.582;2023-03-16T15:52:56;4.50;;;2.20;;
20004;SDS011;68409;45.498;-73.582;2023-03-16T15:57:59;11.90;;;2.07;;
20004;SDS011;68409;45.498;-73.582;2023-03-16T16:00:33;2.60;;;1.80;;
20004;SDS011;68409;45.498;-73.582;2023-03-16T16:03:02;6.60;;;2.40;;
20004;SDS011;68409;45.498;-73.582;2023-03-16T16:05:30;10.23;;;2.30;;
20004;SDS011;68409;45.498;-73.582;2023-03-16T16:08:00;5.63;;;1.87;;
20004;SDS011;68409;45.498;-73.582;2023-03-16T16:10:26;6.77;;;2.13;;
20004;SDS011;68409;45.498;-73.582;2023-03-16T16:12:53;3.97;;;1.97;;
20004;SDS011;68409;45.498;-73.582;2023-03-16T16:17:58;6.10;;;2.00;;